Time;durP1;ratioP1;P1;durP2;ratioP2;P2;SDS_P1;SDS_P2;PMS_P1;PMS_P2;Temp;Humidity;BMP_temperature;BMP_pressure;BME280_temperature;BME280_humidity;BME280_pressure;Samples;Min_cycle;Max_cycle;Signal;HPM_P1;HPM_P2
2022/06/07 00:01:00;;;;;;;3.90;3.10;;;;;;;14.40;86.93;97587.13;6234228;28;20281;-84
2022/06/07 00:04:03;;;;;;;6.20;3.30;;;;;;;14.43;87.02;97586.84;6240861;28;20242;-83
2022/06/07 00:07:07;;;;;;;3.60;3.30;;;;;;;14.41;87.07;97572.88;6214183;28;20249;-84
2022/06/07 00:10:10;;;;;;;4.37;3.13;;;;;;;14.33;87.69;97578.91;6201311;28;20776;-84
2022/06/07 00:13:12;;;;;;;6.30;3.53;;;;;;;14.28;87.74;97581.16;6195948;28;20604;-84
2022/06/07 00:16:16;;;;;;;3.23;3.03;;;;;;;14.24;87.55;97571.84;6228697;28;20231;-84
2022/06/07 00:19:19;;;;;;;3.37;3.07;;;;;;;14.25;87.87;97576.16;6213100;28;20297;-83
2022/06/07 00:22:21;;;;;;;4.33;3.73;;;;;;;14.27;87.35;97573.38;6231393;28;20865;-83
2022/06/07 00:25:23;;;;;;;4.17;3.43;;;;;;;14.26;87.59;97577.84;6215707;28;20242;-84
2022/06/07 00:28:26;;;;;;;4.20;3.13;;;;;;;14.23;87.45;97569.34;6215366;28;20255;-84
2022/06/07 00:31:28;;;;;;;3.33;3.03;;;;;;;14.19;87.58;97571.44;6214711;28;20235;-85
2022/06/07 00:34:30;;;;;;;3.57;2.93;;;;;;;14.13;87.53;97564.06;6231552;28;20610;-83
2022/06/07 00:37:32;;;;;;;3.53;3.23;;;;;;;14.14;87.79;97565.75;6213895;28;20231;-83
2022/06/07 00:40:35;;;;;;;5.07;3.50;;;;;;;14.12;87.66;97561.56;6214730;28;20226;-83
2022/06/07 00:43:37;;;;;;;5.83;3.60;;;;;;;14.13;87.98;97558.78;6216305;28;20703;-84
2022/06/07 00:46:39;;;;;;;4.73;3.23;;;;;;;14.16;88.27;97560.31;6215932;28;20330;-85
2022/06/07 00:49:48;;;;;;;3.53;3.13;;;;;;;14.14;88.31;97562.25;6214741;28;20219;-85
2022/06/07 00:52:50;;;;;;;3.80;3.50;;;;;;;14.11;88.29;97558.06;6232378;28;20348;-85
2022/06/07 00:55:53;;;;;;;3.67;3.17;;;;;;;14.10;88.12;97550.25;6211604;28;20290;-85
2022/06/07 00:58:55;;;;;;;2.90;2.70;;;;;;;14.06;88.16;97554.22;6221691;28;20239;-85
2022/06/07 01:01:58;;;;;;;3.70;2.90;;;;;;;14.06;88.22;97547.09;6217509;28;20242;-84
2022/06/07 01:05:01;;;;;;;3.47;3.17;;;;;;;14.04;88.27;97549.03;6206044;28;20570;-84
2022/06/07 01:11:33;;;;;;;4.67;3.30;;;;;;;13.99;88.15;97543.34;6214909;28;20231;-84
2022/06/07 01:14:35;;;;;;;3.00;2.80;;;;;;;13.96;88.71;97541.00;6214888;28;20707;-84
2022/06/07 01:17:37;;;;;;;3.50;3.20;;;;;;;13.93;88.67;97536.81;6196766;28;20231;-84
2022/06/07 01:20:40;;;;;;;3.40;3.10;;;;;;;13.89;88.71;97530.13;6214436;28;20239;-83
2022/06/07 01:23:44;;;;;;;3.40;3.00;;;;;;;13.86;89.11;97535.75;6197729;28;20224;-84
2022/06/07 01:26:50;;;;;;;3.40;3.10;;;;;;;13.83;88.56;97536.03;6205260;28;20236;-84
2022/06/07 01:29:53;;;;;;;3.67;3.20;;;;;;;13.82;88.56;97534.34;6204935;28;20225;-83
2022/06/07 01:32:56;;;;;;;2.90;2.70;;;;;;;13.81;88.34;97535.31;6205961;28;20224;-83
2022/06/07 01:36:04;;;;;;;2.93;2.73;;;;;;;13.78;88.60;97532.13;6184119;28;20322;-84
2022/06/07 01:42:28;;;;;;;3.23;2.93;;;;;;;13.77;89.04;97528.66;6214047;28;20231;-84
2022/06/07 01:45:30;;;;;;;5.43;3.23;;;;;;;13.73;88.56;97514.00;6231426;28;20227;-84
2022/06/07 01:48:33;;;;;;;3.00;2.80;;;;;;;13.71;89.09;97515.97;6212942;28;20580;-84
2022/06/07 01:51:35;;;;;;;4.03;2.53;;;;;;;13.68;88.90;97518.91;6213302;28;20592;-83
2022/06/07 01:54:37;;;;;;;2.70;2.50;;;;;;;13.68;89.04;97511.78;6213393;28;20322;-84
2022/06/07 01:57:39;;;;;;;3.73;2.87;;;;;;;13.68;89.07;97510.94;6189401;28;20592;-84
2022/06/07 02:00:46;;;;;;;3.00;2.70;;;;;;;13.69;89.07;97496.72;6208529;28;20241;-84
2022/06/07 02:03:49;;;;;;;3.07;2.60;;;;;;;13.70;88.91;97494.91;6200768;28;20235;-84
2022/06/07 02:06:51;;;;;;;3.37;3.07;;;;;;;13.71;88.96;97496.56;6213596;28;20719;-84
2022/06/07 02:10:02;;;;;;;3.73;2.77;;;;;;;13.68;89.37;97487.06;6197470;28;20266;-84
2022/06/07 02:13:07;;;;;;;2.77;2.57;;;;;;;13.69;89.10;97491.41;6213694;28;20228;-83
2022/06/07 02:16:09;;;;;;;2.70;2.50;;;;;;;13.71;89.38;97489.44;6214707;28;20246;-84
2022/06/07 02:19:12;;;;;;;2.77;2.57;;;;;;;13.69;88.63;97491.41;6237217;28;20629;-84
2022/06/07 02:22:18;;;;;;;2.53;2.30;;;;;;;13.66;89.00;97483.75;6207811;28;20313;-84
2022/06/07 02:25:20;;;;;;;3.17;2.27;;;;;;;13.66;88.79;97483.75;6205771;28;20236;-84
2022/06/07 02:28:27;;;;;;;2.33;2.20;;;;;;;13.65;88.51;97487.41;6195331;28;20255;-83
2022/06/07 02:31:32;;;;;;;3.67;2.10;;;;;;;13.65;88.56;97479.44;6177149;28;20290;-84
2022/06/07 02:34:38;;;;;;;2.40;2.27;;;;;;;13.67;88.39;97477.47;6191576;28;20247;-84
2022/06/07 02:37:40;;;;;;;5.17;2.37;;;;;;;13.66;88.33;97476.66;6211916;28;20275;-84
2022/06/07 02:40:45;;;;;;;3.47;2.50;;;;;;;13.62;88.55;97472.59;6217175;28;20705;-84
2022/06/07 02:43:47;;;;;;;3.07;2.57;;;;;;;13.58;88.36;97463.25;6221060;28;20672;-84
2022/06/07 02:46:50;;;;;;;3.83;2.50;;;;;;;13.56;88.55;97470.56;6213090;28;20227;-84
2022/06/07 02:49:53;;;;;;;3.50;2.33;;;;;;;13.51;88.65;97466.66;6212514;28;20238;-84
2022/06/07 02:52:56;;;;;;;2.50;2.30;;;;;;;13.49;88.97;97472.09;6212881;28;20231;-83
2022/06/07 02:56:03;;;;;;;2.87;2.63;;;;;;;13.47;88.82;97460.84;6223284;28;20228;-84
2022/06/07 02:59:06;;;;;;;3.03;2.73;;;;;;;13.48;89.01;97461.63;6214840;28;20344;-84
2022/06/07 03:02:08;;;;;;;2.97;2.60;;;;;;;13.51;88.82;97462.19;6218578;28;20225;-83
2022/06/07 03:05:11;;;;;;;2.83;2.63;;;;;;;13.53;89.12;97459.41;6208786;28;20234;-83
2022/06/07 03:08:19;;;;;;;2.70;2.50;;;;;;;13.52;89.59;97458.56;6212030;28;20766;-84
2022/06/07 03:11:23;;;;;;;5.17;2.63;;;;;;;13.51;89.48;97464.00;6211429;28;20228;-84
2022/06/07 03:14:25;;;;;;;4.23;2.87;;;;;;;13.51;89.49;97467.50;6211329;28;20278;-84
2022/06/07 03:17:35;;;;;;;2.80;2.47;;;;;;;13.51;89.56;97479.91;6211815;28;20708;-84
2022/06/07 03:20:37;;;;;;;3.17;2.60;;;;;;;13.55;89.73;97476.00;6229659;28;20287;-84
2022/06/07 03:23:41;;;;;;;3.20;2.40;;;;;;;13.57;89.65;97476.69;6211488;28;20254;-84
2022/06/07 03:26:47;;;;;;;2.67;2.47;;;;;;;13.59;89.64;97467.59;6229335;28;20327;-84
2022/06/07 03:29:51;;;;;;;3.30;2.50;;;;;;;13.63;89.41;97476.94;6210985;28;20297;-83
2022/06/07 03:32:58;;;;;;;2.40;2.20;;;;;;;13.69;89.18;97480.78;6212215;28;20231;-84
2022/06/07 03:36:05;;;;;;;3.03;2.60;;;;;;;13.69;88.86;97475.50;6209979;28;20232;-84
2022/06/07 03:39:10;;;;;;;2.87;2.50;;;;;;;13.71;89.44;97483.31;6210919;28;20212;-84
2022/06/07 03:42:21;;;;;;;2.57;2.37;;;;;;;13.73;89.34;97478.69;6210422;28;20235;-84
2022/06/07 03:45:24;;;;;;;3.03;2.73;;;;;;;13.73;89.07;97478.69;6211146;28;20350;-84
2022/06/07 03:48:26;;;;;;;3.00;2.23;;;;;;;13.74;88.67;97470.59;6227652;28;20242;-84
2022/06/07 03:51:30;;;;;;;2.97;2.30;;;;;;;13.74;88.40;97467.94;6202853;28;20267;-84
2022/06/07 03:54:32;;;;;;;2.87;2.50;;;;;;;13.76;88.29;97468.63;6210700;28;20266;-84
2022/06/07 03:57:35;;;;;;;2.97;2.20;;;;;;;13.76;88.04;97452.72;6198452;28;20251;-84
2022/06/07 04:00:37;;;;;;;3.00;2.80;;;;;;;13.74;88.14;97451.19;6222249;28;20242;-84
2022/06/07 04:03:44;;;;;;;3.20;2.60;;;;;;;13.78;88.66;97450.72;6207819;28;20246;-84
2022/06/07 04:10:15;;;;;;;2.70;2.50;;;;;;;13.87;87.93;97447.22;6191659;28;20367;-84
2022/06/07 04:13:26;;;;;;;2.83;2.60;;;;;;;13.96;87.82;97450.78;6191337;28;20232;-84
2022/06/07 04:16:31;;;;;;;4.37;2.93;;;;;;;14.07;88.07;97452.38;6173623;28;20244;-84
2022/06/07 04:19:44;;;;;;;2.53;2.20;;;;;;;14.26;87.38;97449.59;6192316;28;20229;-84
2022/06/07 04:22:47;;;;;;;2.60;2.40;;;;;;;14.44;87.03;97450.44;6208898;28;20702;-85
2022/06/07 04:25:51;;;;;;;2.40;2.20;;;;;;;14.57;86.64;97447.41;6190820;28;20263;-84
2022/06/07 04:28:56;;;;;;;2.70;2.50;;;;;;;14.69;86.56;97444.34;6176259;28;20260;-84
2022/06/07 04:31:58;;;;;;;2.70;2.07;;;;;;;14.80;86.62;97440.59;6189951;28;20772;-85
2022/06/07 04:35:02;;;;;;;2.10;2.00;;;;;;;14.90;86.71;97436.00;6201265;28;20228;-86
2022/06/07 04:38:04;;;;;;;3.50;2.57;;;;;;;15.00;86.41;97435.91;6192222;28;20230;-86
2022/06/07 04:41:17;;;;;;;2.23;2.13;;;;;;;15.06;86.45;97433.47;6175504;28;20699;-87
2022/06/07 04:44:27;;;;;;;2.47;2.27;;;;;;;15.12;86.30;97432.84;6189675;28;20225;-85
2022/06/07 04:47:29;;;;;;;2.70;2.37;;;;;;;15.19;86.04;97434.84;6196662;28;20243;-86
2022/06/07 04:50:32;;;;;;;3.23;2.70;;;;;;;15.29;85.89;97422.28;6196800;28;20229;-85
2022/06/07 04:53:34;;;;;;;2.77;2.50;;;;;;;15.39;85.84;97436.28;6222556;28;20370;-84
2022/06/07 04:56:37;;;;;;;3.17;2.87;;;;;;;15.52;85.29;97431.38;6210403;28;20704;-85
2022/06/07 04:59:39;;;;;;;3.33;2.30;;;;;;;15.71;84.99;97439.13;6190383;28;20255;-84
2022/06/07 05:02:43;;;;;;;2.50;2.30;;;;;;;15.90;84.67;97439.84;6193604;28;20677;-84
2022/06/07 05:05:45;;;;;;;2.53;2.33;;;;;;;16.10;84.11;97444.72;6190856;28;20315;-84
2022/06/07 05:08:53;;;;;;;3.03;2.60;;;;;;;16.31;83.61;97449.56;6197358;28;20564;-84
2022/06/07 05:11:55;;;;;;;2.50;2.30;;;;;;;16.53;83.36;97440.13;6254688;28;20223;-84
2022/06/07 05:15:00;;;;;;;2.87;2.57;;;;;;;16.79;82.75;97451.44;6215174;28;20236;-84
2022/06/07 05:18:09;;;;;;;4.53;2.27;;;;;;;17.03;81.77;97445.28;6215228;28;20235;-84
2022/06/07 05:21:14;;;;;;;2.50;2.10;;;;;;;17.22;81.52;97449.41;6227859;28;20652;-85
2022/06/07 05:24:17;;;;;;;2.73;2.53;;;;;;;17.41;81.68;97446.34;6206703;28;20223;-84
2022/06/07 05:27:24;;;;;;;2.90;2.37;;;;;;;17.60;81.59;97445.94;6213691;28;20362;-84
2022/06/07 05:30:27;;;;;;;5.30;2.33;;;;;;;17.87;81.61;97447.34;6205239;28;20231;-85
2022/06/07 05:33:43;;;;;;;3.10;2.40;;;;;;;18.15;80.71;97450.38;6215411;28;20247;-85
2022/06/07 05:36:46;;;;;;;3.13;2.40;;;;;;;18.34;80.58;97441.09;6197853;28;20227;-85
2022/06/07 05:39:48;;;;;;;2.57;2.40;;;;;;;18.53;80.34;97439.78;6214359;28;20592;-85
2022/06/07 05:42:51;;;;;;;4.30;2.50;;;;;;;18.76;79.58;97437.94;6213680;28;20234;-85
2022/06/07 05:46:08;;;;;;;2.30;2.20;;;;;;;18.94;79.31;97441.13;6198347;28;20711;-85
2022/06/07 05:49:21;;;;;;;2.70;2.50;;;;;;;19.05;78.68;97440.69;6197706;28;20323;-84
2022/06/07 05:52:44;;;;;;;2.73;2.53;;;;;;;19.16;77.92;97442.88;6230741;28;20315;-84
2022/06/07 05:55:47;;;;;;;3.13;2.37;;;;;;;19.24;77.93;97451.88;6186979;28;20239;-84
2022/06/07 05:58:51;;;;;;;3.83;2.60;;;;;;;19.31;77.84;97453.63;6220106;28;20316;-84
2022/06/07 06:01:53;;;;;;;2.67;2.43;;;;;;;19.45;77.29;97457.34;6214550;28;20634;-84
2022/06/07 06:05:00;;;;;;;3.47;2.50;;;;;;;19.58;76.86;97462.88;6184681;28;20723;-84
2022/06/07 06:11:28;;;;;;;3.30;2.33;;;;;;;19.87;75.62;97452.16;6206163;28;20236;-84
2022/06/07 06:14:41;;;;;;;2.33;2.17;;;;;;;20.00;75.26;97459.53;6204820;28;20356;-85
2022/06/07 06:17:51;;;;;;;3.40;2.17;;;;;;;20.03;75.08;97463.69;6186957;28;20236;-84
2022/06/07 06:21:04;;;;;;;2.40;2.20;;;;;;;20.07;74.80;97462.28;6204696;28;20220;-85
2022/06/07 06:24:09;;;;;;;3.27;2.37;;;;;;;20.08;74.80;97454.03;6189004;28;20220;-84
2022/06/07 06:27:13;;;;;;;2.27;1.80;;;;;;;20.08;75.13;97454.03;6172891;28;20267;-84
2022/06/07 06:30:20;;;;;;;2.23;2.00;;;;;;;20.17;74.92;97452.91;6201554;28;20231;-84
2022/06/07 06:33:32;;;;;;;2.80;2.00;;;;;;;20.29;74.59;97450.56;6204039;28;20224;-84
2022/06/07 06:36:35;;;;;;;2.47;1.90;;;;;;;20.32;74.57;97447.53;6203925;28;20235;-84
2022/06/07 06:39:44;;;;;;;3.00;2.20;;;;;;;20.48;74.33;97446.47;6188794;28;20240;-84
2022/06/07 06:42:48;;;;;;;3.93;2.47;;;;;;;20.56;73.52;97441.81;6191058;28;20599;-85
2022/06/07 06:46:08;;;;;;;2.43;1.93;;;;;;;20.49;73.82;97453.50;6188483;28;20232;-84
2022/06/07 06:49:14;;;;;;;1.90;1.80;;;;;;;20.32;74.46;97444.84;6186450;28;20320;-84
2022/06/07 06:52:20;;;;;;;2.37;2.17;;;;;;;20.49;74.09;97448.13;6203125;28;20228;-84
2022/06/07 06:55:23;;;;;;;2.53;2.00;;;;;;;20.81;73.54;97446.78;6219216;28;20703;-84
2022/06/07 06:58:26;;;;;;;2.43;2.07;;;;;;;21.64;71.38;97446.81;6203817;28;20220;-84
2022/06/07 07:01:51;;;;;;;2.90;2.40;;;;;;;22.32;68.63;97444.19;6210066;28;20286;-84
2022/06/07 07:04:55;;;;;;;2.50;2.30;;;;;;;23.12;66.38;97440.59;6182052;28;20251;-84
2022/06/07 07:07:58;;;;;;;2.50;2.13;;;;;;;23.59;64.24;97452.16;6206956;28;20235;-84
2022/06/07 07:11:18;;;;;;;2.10;1.90;;;;;;;23.50;59.35;97451.53;6203093;28;20236;-84
2022/06/07 07:14:23;;;;;;;2.00;1.80;;;;;;;23.61;58.93;97456.28;6196439;28;20308;-84
2022/06/07 07:17:27;;;;;;;2.57;1.93;;;;;;;23.71;59.96;97453.16;6212292;28;20224;-84
2022/06/07 07:20:29;;;;;;;3.20;1.90;;;;;;;23.59;60.53;97455.66;6211711;28;20611;-84
2022/06/07 07:23:35;;;;;;;3.27;1.97;;;;;;;23.60;61.14;97454.63;6210464;28;20326;-84
2022/06/07 07:26:43;;;;;;;2.00;1.83;;;;;;;23.72;61.38;97458.34;6211739;28;20219;-84
2022/06/07 07:29:46;;;;;;;2.40;1.60;;;;;;;24.04;59.62;97456.56;6210252;28;20278;-84
2022/06/07 07:32:54;;;;;;;2.83;1.70;;;;;;;24.02;59.20;97464.06;6210987;28;20269;-85
2022/06/07 07:35:56;;;;;;;1.70;1.60;;;;;;;23.89;59.55;97464.09;6211535;28;20603;-84
2022/06/07 07:38:59;;;;;;;2.90;2.03;;;;;;;23.75;58.69;97460.63;6202924;28;20628;-84
2022/06/07 07:42:01;;;;;;;2.53;1.75;;;;;;;23.89;58.93;97456.81;6186526;28;20451;-84
2022/06/07 07:45:12;;;;;;;3.40;1.80;;;;;;;23.90;58.17;97450.41;6202959;28;20212;-84
2022/06/07 07:48:18;;;;;;;2.47;2.03;;;;;;;24.05;58.46;97449.31;6189728;28;20213;-84
2022/06/07 07:51:37;;;;;;;3.97;1.73;;;;;;;24.15;57.67;97447.81;6195428;28;20253;-84
2022/06/07 07:54:39;;;;;;;2.07;1.87;;;;;;;24.09;58.13;97448.66;6194385;28;20239;-84
2022/06/07 07:57:43;;;;;;;4.10;1.70;;;;;;;24.63;57.62;97447.38;6210898;28;20318;-84
2022/06/07 08:00:50;;;;;;;2.20;1.63;;;;;;;25.31;55.14;97445.59;6210472;28;20254;-84
2022/06/07 08:03:58;;;;;;;3.25;1.70;;;;;;;25.33;53.43;97440.81;6210059;28;20765;-84
2022/06/07 08:07:09;;;;;;;1.92;1.77;;;;;;;25.23;52.21;97447.78;6203788;28;20247;-84
2022/06/07 08:10:12;;;;;;;4.25;1.75;;;;;;;25.57;53.32;97438.28;6199777;28;20241;-85
2022/06/07 08:13:14;;;;;;;2.40;1.67;;;;;;;25.70;51.76;97440.88;6205774;28;20713;-85
2022/06/07 08:16:18;;;;;;;1.83;1.45;;;;;;;25.67;50.46;97452.97;6210461;28;20231;-85
2022/06/07 08:19:20;;;;;;;2.05;1.40;;;;;;;25.39;49.84;97444.50;6231618;28;20259;-84
2022/06/07 08:22:23;;;;;;;2.85;1.50;;;;;;;25.08;50.42;97449.97;6211017;28;20714;-85
2022/06/07 08:25:25;;;;;;;2.85;1.52;;;;;;;24.79;50.37;97454.09;6210909;28;20232;-85
2022/06/07 08:28:28;;;;;;;2.15;0.98;;;;;;;24.74;49.41;97449.38;6210633;28;20223;-85
2022/06/07 08:31:31;;;;;;;1.35;1.23;;;;;;;24.56;49.17;97450.09;6210337;28;20342;-85
2022/06/07 08:37:56;;;;;;;1.73;1.50;;;;;;;24.13;52.59;97449.91;6228285;28;20629;-84
2022/06/07 08:40:58;;;;;;;1.60;1.10;;;;;;;24.21;53.97;97449.69;6211727;28;20759;-84
2022/06/07 08:44:08;;;;;;;1.45;1.15;;;;;;;24.28;53.98;97446.94;6232399;28;20227;-84
2022/06/07 08:47:35;;;;;;;1.30;1.20;;;;;;;24.15;54.53;97438.91;6206020;28;20323;-84
2022/06/07 08:51:28;;;;;;;1.40;1.30;;;;;;;24.00;53.71;97441.03;6183263;28;20235;-85
2022/06/07 08:54:35;;;;;;;1.30;1.20;;;;;;;24.06;54.59;97438.28;6206053;28;20559;-84
2022/06/07 08:57:37;;;;;;;1.50;1.33;;;;;;;24.23;54.79;97438.69;6219576;28;20227;-84
2022/06/07 09:00:48;;;;;;;1.80;1.60;;;;;;;24.38;54.31;97444.59;6231629;28;20262;-84
2022/06/07 09:04:16;;;;;;;2.83;1.40;;;;;;;24.28;50.69;97436.97;6199139;28;20580;-85
2022/06/07 09:07:20;;;;;;;1.60;1.30;;;;;;;24.07;52.99;97437.25;6196574;28;20355;-85
2022/06/07 09:13:44;;;;;;;1.17;1.07;;;;;;;24.05;51.85;97433.97;6215340;28;20595;-85
2022/06/07 09:16:47;;;;;;;2.47;1.50;;;;;;;24.32;52.20;97428.47;6231071;28;20596;-84
2022/06/07 09:19:50;;;;;;;1.65;1.42;;;;;;;24.50;51.44;97428.56;6217237;28;20223;-85
2022/06/07 09:23:00;;;;;;;2.50;1.60;;;;;;;24.90;51.93;97427.22;6216264;28;20424;-84
2022/06/07 09:26:27;;;;;;;1.35;1.25;;;;;;;25.89;50.84;97417.38;6197848;28;20228;-85
2022/06/07 09:29:35;;;;;;;1.73;1.63;;;;;;;26.83;46.97;97420.25;6213622;28;20232;-85
2022/06/07 09:32:37;;;;;;;3.05;1.45;;;;;;;27.57;44.66;97415.25;6213404;28;20252;-85
2022/06/07 09:35:42;;;;;;;1.40;1.30;;;;;;;27.36;44.58;97413.94;6205024;28;20569;-85
2022/06/07 09:38:52;;;;;;;1.48;1.38;;;;;;;27.30;45.29;97411.34;6186822;28;20257;-85
2022/06/07 09:42:11;;;;;;;3.28;1.80;;;;;;;27.33;43.30;97400.88;6197055;28;20711;-86
2022/06/07 09:45:13;;;;;;;2.30;1.77;;;;;;;27.71;45.50;97386.81;6174827;28;20232;-86
2022/06/07 09:48:32;;;;;;;1.85;1.75;;;;;;;27.61;42.73;97394.75;6196545;28;20586;-86
2022/06/07 09:51:41;;;;;;;3.05;1.75;;;;;;;26.98;44.01;97394.59;6229884;28;20240;-86
2022/06/07 09:54:45;;;;;;;2.90;1.75;;;;;;;26.66;45.46;97391.34;6212097;28;20228;-86
2022/06/07 09:57:56;;;;;;;2.85;1.80;;;;;;;27.01;44.27;97383.31;6214182;28;20236;-86
2022/06/07 10:01:10;;;;;;;2.83;1.65;;;;;;;26.11;44.38;97386.09;6231814;28;20739;-86
2022/06/07 10:04:35;;;;;;;1.58;1.17;;;;;;;25.94;48.48;97399.41;6231742;28;20236;-85
2022/06/07 10:07:43;;;;;;;1.60;1.50;;;;;;;26.46;46.93;97391.63;6223329;28;20272;-85
2022/06/07 10:10:51;;;;;;;1.20;1.20;;;;;;;27.58;43.62;97397.91;6187136;28;20409;-85
2022/06/07 10:14:17;;;;;;;1.63;1.40;;;;;;;28.17;42.71;97393.19;6216671;28;20608;-85
2022/06/07 10:17:49;;;;;;;1.55;1.40;;;;;;;28.55;40.72;97390.66;6226011;28;20240;-85
2022/06/07 10:21:13;;;;;;;1.58;1.40;;;;;;;28.84;40.73;97390.66;6198330;28;20239;-85
2022/06/07 10:24:27;;;;;;;1.50;1.30;;;;;;;28.95;38.72;97389.72;6211865;28;20235;-85
2022/06/07 10:27:51;;;;;;;1.63;1.40;;;;;;;28.79;38.39;97376.97;6187809;28;20232;-85
2022/06/07 10:31:02;;;;;;;1.70;1.60;;;;;;;27.92;40.15;97380.75;6197227;28;20229;-85
2022/06/07 10:34:09;;;;;;;1.70;1.40;;;;;;;27.73;42.05;97364.91;6200382;28;20269;-85
2022/06/07 10:37:23;;;;;;;1.77;1.67;;;;;;;27.83;42.95;97363.22;6222334;28;20289;-85
2022/06/07 10:40:46;;;;;;;1.83;1.73;;;;;;;28.69;42.76;97357.75;6203792;28;20610;-85
2022/06/07 10:43:48;;;;;;;2.65;1.75;;;;;;;28.60;40.32;97347.31;6217784;28;20232;-85
2022/06/07 10:46:51;;;;;;;3.80;1.60;;;;;;;28.14;40.97;97352.97;6211972;28;20251;-86
2022/06/07 10:50:14;;;;;;;2.00;1.80;;;;;;;28.38;42.13;97367.25;6212213;28;20590;-85
2022/06/07 10:53:26;;;;;;;3.22;2.15;;;;;;;28.90;41.35;97346.19;6228728;28;20602;-86
2022/06/07 10:56:33;;;;;;;2.22;1.83;;;;;;;28.22;42.42;97352.59;6228002;28;20318;-85
2022/06/07 10:59:38;;;;;;;3.13;2.00;;;;;;;27.93;42.99;97359.88;6217973;28;20235;-85
2022/06/07 11:03:00;;;;;;;3.15;2.13;;;;;;;27.59;43.79;97363.50;6207821;28;20244;-85
2022/06/07 11:09:37;;;;;;;2.33;2.13;;;;;;;26.71;46.43;97367.13;6227294;28;20227;-85
2022/06/07 11:12:49;;;;;;;4.07;2.50;;;;;;;26.25;47.21;97360.50;6211479;28;20232;-85
2022/06/07 11:16:03;;;;;;;4.03;2.30;;;;;;;26.05;47.97;97363.47;6224625;28;20741;-85
2022/06/07 11:19:08;;;;;;;2.28;2.05;;;;;;;25.77;48.43;97362.38;6211952;28;20224;-85
2022/06/07 11:22:17;;;;;;;2.80;2.50;;;;;;;25.69;48.50;97364.34;6210625;28;20573;-85
2022/06/07 11:25:22;;;;;;;2.03;1.92;;;;;;;25.52;48.79;97357.06;6203554;28;20696;-85
2022/06/07 11:28:27;;;;;;;2.42;2.03;;;;;;;25.46;49.02;97364.16;6212513;28;20231;-85
2022/06/07 11:31:44;;;;;;;2.58;2.25;;;;;;;25.19;49.52;97371.75;6200308;28;20241;-85
2022/06/07 11:34:47;;;;;;;2.58;1.98;;;;;;;24.82;50.56;97372.69;6231300;28;20699;-85
2022/06/07 11:38:18;;;;;;;2.30;2.10;;;;;;;24.31;51.69;97379.09;6210488;28;20709;-85
2022/06/07 11:41:41;;;;;;;2.47;2.10;;;;;;;23.84;54.08;97381.19;6210019;28;20763;-84
2022/06/07 11:44:45;;;;;;;2.28;2.08;;;;;;;23.77;54.84;97393.00;6208734;28;20267;-85
2022/06/07 11:47:47;;;;;;;2.10;1.90;;;;;;;23.77;55.61;97391.13;6204679;28;20707;-85
2022/06/07 11:50:58;;;;;;;2.13;1.70;;;;;;;23.66;55.15;97386.41;6210876;28;20315;-85
2022/06/07 11:54:06;;;;;;;1.83;1.67;;;;;;;23.53;56.17;97384.63;6211482;28;20301;-85
2022/06/07 11:57:27;;;;;;;1.95;1.83;;;;;;;23.28;56.42;97386.28;6186034;28;20244;-85
2022/06/07 12:00:29;;;;;;;2.50;1.85;;;;;;;23.03;57.32;97386.13;6221385;28;20607;-85
2022/06/07 12:03:34;;;;;;;2.45;1.88;;;;;;;22.86;58.66;97392.97;6210524;28;20314;-85
2022/06/07 12:06:39;;;;;;;3.83;1.90;;;;;;;22.53;60.12;97395.63;6210966;28;20220;-87
2022/06/07 12:09:57;;;;;;;2.00;1.80;;;;;;;22.43;61.65;97414.84;6210819;28;20665;-86
2022/06/07 12:13:09;;;;;;;2.40;2.17;;;;;;;22.15;63.43;97416.03;6228103;28;20234;-85
2022/06/07 12:16:25;;;;;;;4.47;2.70;;;;;;;21.65;64.91;97410.03;6214017;28;20354;-85
2022/06/07 12:19:31;;;;;;;3.13;1.90;;;;;;;21.31;64.79;97406.31;6233724;28;20220;-85
2022/06/07 12:22:41;;;;;;;3.50;2.50;;;;;;;21.15;66.58;97387.81;6214665;28;20235;-85
2022/06/07 12:25:55;;;;;;;3.30;2.57;;;;;;;20.95;68.60;97389.53;6208222;28;20611;-85
2022/06/07 12:29:00;;;;;;;4.37;2.10;;;;;;;20.76;69.92;97384.84;6189828;28;20367;-85
2022/06/07 12:32:06;;;;;;;2.80;2.10;;;;;;;20.68;70.93;97395.69;6203535;28;20715;-85
2022/06/07 12:35:28;;;;;;;7.60;2.50;;;;;;;20.57;71.75;97392.53;6185704;28;20256;-85
2022/06/07 12:38:31;;;;;;;3.10;2.80;;;;;;;20.51;71.47;97387.94;6226912;28;20238;-85
2022/06/07 12:41:34;;;;;;;3.90;2.60;;;;;;;20.15;71.37;97400.56;6215420;28;20261;-85
2022/06/07 12:44:43;;;;;;;3.03;2.73;;;;;;;20.06;71.96;97401.69;6214339;28;20285;-85
2022/06/07 12:47:46;;;;;;;4.40;2.90;;;;;;;20.02;73.26;97387.00;6207139;28;20310;-85
2022/06/07 12:50:48;;;;;;;4.77;2.70;;;;;;;20.05;73.38;97386.63;6196175;28;20286;-85
2022/06/07 12:54:17;;;;;;;5.43;3.17;;;;;;;19.95;73.84;97389.63;6198820;28;20294;-85
2022/06/07 12:57:35;;;;;;;4.80;2.93;;;;;;;19.90;74.04;97383.97;6213496;28;20228;-85
2022/06/07 13:00:43;;;;;;;5.40;2.90;;;;;;;19.90;74.48;97381.31;6214638;28;20228;-85
2022/06/07 13:03:45;;;;;;;3.40;3.10;;;;;;;19.87;74.65;97379.81;6197614;28;20248;-85
2022/06/07 13:07:27;;;;;;;3.10;2.80;;;;;;;19.96;74.31;97382.41;6232001;28;20246;-85
2022/06/07 13:10:45;;;;;;;2.80;2.60;;;;;;;19.92;74.12;97397.19;6231220;28;20707;-85
2022/06/07 13:13:47;;;;;;;3.17;2.97;;;;;;;20.02;74.37;97395.03;6224057;28;20723;-85
2022/06/07 13:16:52;;;;;;;2.97;2.40;;;;;;;20.19;73.88;97385.72;6230437;28;20228;-85
2022/06/07 13:19:54;;;;;;;4.03;2.30;;;;;;;20.48;73.29;97374.09;6230148;28;20607;-86
2022/06/07 13:22:57;;;;;;;4.77;2.70;;;;;;;20.55;72.13;97383.88;6230450;28;20259;-85
2022/06/07 13:26:22;;;;;;;3.33;3.03;;;;;;;20.39;72.36;97377.91;6193478;28;20235;-86
2022/06/07 13:29:36;;;;;;;3.33;2.83;;;;;;;20.23;72.18;97385.19;6209334;28;20229;-86
2022/06/07 13:32:38;;;;;;;3.20;2.37;;;;;;;20.30;72.71;97379.03;6204290;28;20235;-85
2022/06/07 13:35:59;;;;;;;3.27;2.97;;;;;;;20.34;72.62;97388.38;6213642;28;20228;-85
2022/06/07 13:39:01;;;;;;;2.53;2.37;;;;;;;20.48;72.45;97384.81;6207273;28;20239;-84
2022/06/07 13:42:13;;;;;;;2.23;2.03;;;;;;;20.46;71.69;97379.63;6231477;28;20691;-85
2022/06/07 13:45:25;;;;;;;4.70;2.63;;;;;;;20.26;72.58;97366.00;6231341;28;20208;-84
2022/06/07 13:53:21;;;;;;;2.87;2.60;;;;;;;20.14;73.78;97372.94;6230494;28;20224;-85
2022/06/07 13:56:05;;;;;;;3.13;2.67;;;;;;;19.63;75.09;97363.28;6223864;28;20237;-85
2022/06/07 13:59:11;;;;;;;4.27;2.50;;;;;;;19.42;75.96;97367.53;6240648;28;20228;-85
2022/06/07 14:02:13;;;;;;;2.53;2.30;;;;;;;19.12;75.96;97366.72;6229528;28;20738;-86
2022/06/07 14:05:28;;;;;;;2.90;2.60;;;;;;;18.99;77.21;97377.22;6229112;28;20263;-86
2022/06/07 14:08:31;;;;;;;2.80;2.60;;;;;;;18.87;77.75;97376.00;6230428;28;20240;-85
2022/06/07 14:11:35;;;;;;;2.97;2.77;;;;;;;18.89;78.10;97379.31;6196824;28;20234;-84
2022/06/07 14:14:37;;;;;;;2.93;2.73;;;;;;;18.86;78.27;97386.91;6229852;28;20745;-85
2022/06/07 14:17:42;;;;;;;5.70;2.73;;;;;;;18.77;78.39;97384.28;6230439;28;20246;-84
2022/06/07 14:20:47;;;;;;;3.47;2.90;;;;;;;18.64;79.10;97392.09;6196984;28;20220;-84
2022/06/07 14:23:50;;;;;;;3.37;3.00;;;;;;;18.68;79.54;97379.19;6213336;28;20314;-84
2022/06/07 14:26:53;;;;;;;3.50;3.07;;;;;;;18.71;79.71;97385.00;6228671;28;20246;-84
2022/06/07 14:29:57;;;;;;;4.90;2.67;;;;;;;18.74;79.38;97370.47;6229088;28;20232;-85
2022/06/07 14:33:00;;;;;;;3.23;2.73;;;;;;;18.68;79.13;97369.31;6211936;28;20262;-84
2022/06/07 14:36:02;;;;;;;3.73;2.80;;;;;;;18.49;79.85;97363.63;6204100;28;20225;-85
2022/06/07 14:39:05;;;;;;;3.60;2.63;;;;;;;18.37;80.34;97379.25;6204491;28;20379;-84
2022/06/07 14:42:07;;;;;;;3.47;3.00;;;;;;;18.41;80.92;97385.91;6219701;28;20212;-84
2022/06/07 14:45:12;;;;;;;4.80;3.27;;;;;;;18.51;80.95;97391.00;6204169;28;20584;-85
2022/06/07 14:48:25;;;;;;;4.73;2.90;;;;;;;18.47;80.91;97387.06;6231037;28;20243;-86
2022/06/07 14:51:33;;;;;;;2.83;2.63;;;;;;;18.37;81.37;97387.25;6229444;28;20624;-86
2022/06/07 14:54:36;;;;;;;3.07;2.77;;;;;;;18.29;81.50;97387.34;6228641;28;20588;-85
2022/06/07 14:57:42;;;;;;;3.10;2.57;;;;;;;18.21;81.69;97390.91;6229404;28;20227;-85
2022/06/07 15:00:46;;;;;;;2.93;2.70;;;;;;;18.13;81.88;97392.81;6233719;28;20715;-86
2022/06/07 15:03:49;;;;;;;3.43;2.57;;;;;;;17.96;82.47;97392.09;6177319;28;20224;-85
2022/06/07 15:06:52;;;;;;;2.23;2.10;;;;;;;17.80;82.17;97392.16;6179769;28;20229;-85
2022/06/07 15:09:55;;;;;;;2.70;2.37;;;;;;;17.82;82.64;97403.50;6222255;28;20595;-84